Terminal Aerodrome Forecast
Issued by NWS

Home | Current Version | Previous Version | Text Only | Print | Product List | Glossary On
Versions: 1 2 3 4 5 6 7 8 9 10 11 12 13 14 15 16 17 18 19
000
FTUS42 KFFC 012300 CCA
TAFFTY
TAF COR
KFTY 012344Z 0200/0224 10005KT P6SM SCT035 BKN080
     FM020700 07004KT 6SM BR BKN012
     FM020900 07004KT 5SM BR OVC009 PROB30 0212/0217 -SHRA
     FM021700 06005KT P6SM SCT025 BKN035=

USA.gov is the U.S. government's official web portal to all federal, state and local government web resources and services.